Time;durP1;ratioP1;P1;durP2;ratioP2;P2;SDS_P1;SDS_P2;PMS_P1;PMS_P2;Temp;Humidity;BMP_temperature;BMP_pressure;BME280_temperature;BME280_humidity;BME280_pressure;Samples;Min_cycle;Max_cycle;Signal;HPM_P1;HPM_P2
2023/05/20 00:00:22;;;;;;;;;;;19.10;49.80;;;;;;5077333;28;20268;-81
2023/05/20 00:02:48;;;;;;;;;;;19.10;49.80;;;;;;5110121;28;19982;-81
2023/05/20 00:05:13;;;;;;;;;;;19.10;49.80;;;;;;5076489;28;19912;-81
2023/05/20 00:07:39;;;;;;;;;;;19.10;49.90;;;;;;5075863;28;20307;-81
2023/05/20 00:10:05;;;;;;;;;;;19.10;49.90;;;;;;5093219;28;20338;-81
2023/05/20 00:12:31;;;;;;;;;;;19.00;49.90;;;;;;5109349;28;19908;-81
2023/05/20 00:14:57;;;;;;;;;;;19.00;49.90;;;;;;5109663;28;19962;-81
2023/05/20 00:17:24;;;;;;;;;;;19.00;49.90;;;;;;5095110;28;20265;-81
2023/05/20 00:19:50;;;;;;;;;;;19.00;49.90;;;;;;5078340;28;20309;-81
2023/05/20 00:22:15;;;;;;;;;;;19.00;49.90;;;;;;5078255;28;19959;-81
2023/05/20 00:24:41;;;;;;;;;;;19.00;50.00;;;;;;5078640;28;19923;-81
2023/05/20 00:27:06;;;;;;;;;;;19.00;50.00;;;;;;5095955;28;19912;-81
2023/05/20 00:29:32;;;;;;;;;;;19.00;50.00;;;;;;5076213;28;20065;-81
2023/05/20 00:31:58;;;;;;;;;;;19.00;50.00;;;;;;5094490;28;20284;-81
2023/05/20 00:34:23;;;;;;;;;;;18.90;50.00;;;;;;5109589;28;19919;-81
2023/05/20 00:36:50;;;;;;;;;;;18.90;50.00;;;;;;5093680;28;19943;-81
2023/05/20 00:39:15;;;;;;;;;;;18.90;50.00;;;;;;5075719;28;19919;-81
2023/05/20 00:41:41;;;;;;;;;;;18.90;50.00;;;;;;5074395;28;19912;-81
2023/05/20 00:44:07;;;;;;;;;;;18.90;50.00;;;;;;5075897;28;19918;-81
2023/05/20 00:46:32;;;;;;;;;;;18.90;50.00;;;;;;5075736;28;20173;-81
2023/05/20 00:48:58;;;;;;;;;;;18.90;50.00;;;;;;5077102;28;19968;-81
2023/05/20 00:51:23;;;;;;;;;;;18.90;50.00;;;;;;5076798;28;19908;-81
2023/05/20 00:53:50;;;;;;;;;;;18.80;50.40;;;;;;5110205;28;19904;-81
2023/05/20 00:56:16;;;;;;;;;;;18.80;50.00;;;;;;5092613;28;19955;-81
2023/05/20 00:58:42;;;;;;;;;;;18.80;50.00;;;;;;5110340;28;20499;-81
2023/05/20 01:01:07;;;;;;;;;;;18.80;50.00;;;;;;5076614;28;19962;-81
2023/05/20 01:03:33;;;;;;;;;;;18.80;50.10;;;;;;5094800;28;20115;-81
2023/05/20 01:05:59;;;;;;;;;;;18.80;50.10;;;;;;5077746;28;20190;-81
2023/05/20 01:08:25;;;;;;;;;;;18.80;50.10;;;;;;5111458;28;19924;-81
2023/05/20 01:10:55;;;;;;;;;;;18.80;50.10;;;;;;5078634;28;19912;-81
2023/05/20 01:13:26;;;;;;;;;;;18.70;50.10;;;;;;5078951;28;20285;-81
2023/05/20 01:15:52;;;;;;;;;;;18.70;50.10;;;;;;5082157;28;19912;-81
2023/05/20 01:18:19;;;;;;;;;;;18.70;50.50;;;;;;5083228;28;20274;-81
2023/05/20 01:20:48;;;;;;;;;;;18.70;50.10;;;;;;5082893;28;19909;-81
2023/05/20 01:23:15;;;;;;;;;;;18.70;50.10;;;;;;5082220;28;19908;-81
2023/05/20 01:25:41;;;;;;;;;;;18.70;50.20;;;;;;5081893;28;19952;-81
2023/05/20 01:28:07;;;;;;;;;;;18.70;50.10;;;;;;5081333;28;19966;-81
2023/05/20 01:30:37;;;;;;;;;;;18.70;50.20;;;;;;5081744;28;20010;-81
2023/05/20 01:33:10;;;;;;;;;;;18.70;50.20;;;;;;5099434;28;19996;-81
2023/05/20 01:35:36;;;;;;;;;;;18.60;50.20;;;;;;5099119;28;19919;-81
2023/05/20 01:38:03;;;;;;;;;;;18.60;50.20;;;;;;5080978;28;19927;-81
2023/05/20 01:40:29;;;;;;;;;;;18.60;50.20;;;;;;5099316;28;19939;-81
2023/05/20 01:42:56;;;;;;;;;;;18.60;50.20;;;;;;5100194;28;20216;-81
2023/05/20 01:45:22;;;;;;;;;;;18.60;50.20;;;;;;5081483;28;20255;-81
2023/05/20 01:47:48;;;;;;;;;;;18.60;50.20;;;;;;5081965;28;19912;-81
2023/05/20 01:50:14;;;;;;;;;;;18.60;50.20;;;;;;5116223;28;20231;-81
2023/05/20 01:52:40;;;;;;;;;;;18.60;50.20;;;;;;5082813;28;19927;-81
2023/05/20 01:55:05;;;;;;;;;;;18.60;50.20;;;;;;5082461;28;20270;-81
2023/05/20 01:57:31;;;;;;;;;;;18.60;50.20;;;;;;5082401;28;19966;-81
2023/05/20 01:59:56;;;;;;;;;;;18.60;50.20;;;;;;5100070;28;19908;-81
2023/05/20 02:02:22;;;;;;;;;;;18.60;50.20;;;;;;5099137;28;19973;-81
2023/05/20 02:04:49;;;;;;;;;;;18.60;50.20;;;;;;5081844;28;20011;-81
2023/05/20 02:07:15;;;;;;;;;;;18.50;50.20;;;;;;5116159;28;19912;-81
2023/05/20 02:09:41;;;;;;;;;;;18.50;50.20;;;;;;5082307;28;19972;-82
2023/05/20 02:12:07;;;;;;;;;;;18.50;50.20;;;;;;5099549;28;19915;-82
2023/05/20 02:14:32;;;;;;;;;;;18.50;50.20;;;;;;5106499;28;19926;-82
2023/05/20 02:16:58;;;;;;;;;;;18.50;50.30;;;;;;5098757;28;19995;-82
2023/05/20 02:19:23;;;;;;;;;;;18.50;50.30;;;;;;5080872;28;19908;-82
2023/05/20 02:21:49;;;;;;;;;;;18.50;50.30;;;;;;5080966;28;19908;-81
2023/05/20 02:24:15;;;;;;;;;;;18.50;50.30;;;;;;5081015;28;19908;-81
2023/05/20 02:26:40;;;;;;;;;;;18.50;50.30;;;;;;5114226;28;19924;-81
2023/05/20 02:29:06;;;;;;;;;;;18.40;50.20;;;;;;5081169;28;20216;-81
2023/05/20 02:31:32;;;;;;;;;;;18.40;50.20;;;;;;5081395;28;19912;-81
2023/05/20 02:33:57;;;;;;;;;;;18.40;50.20;;;;;;5081601;28;19908;-81
2023/05/20 02:36:23;;;;;;;;;;;18.40;50.20;;;;;;5098241;28;20177;-81
2023/05/20 02:38:48;;;;;;;;;;;18.40;50.20;;;;;;5114759;28;19909;-81
2023/05/20 02:41:14;;;;;;;;;;;18.40;50.30;;;;;;5114552;28;19977;-81
2023/05/20 02:43:40;;;;;;;;;;;18.40;50.30;;;;;;5081683;28;19909;-81
2023/05/20 02:46:05;;;;;;;;;;;18.40;50.30;;;;;;5079850;28;19908;-81
2023/05/20 02:48:31;;;;;;;;;;;18.40;50.30;;;;;;5080195;28;19951;-81
2023/05/20 02:50:58;;;;;;;;;;;18.40;50.30;;;;;;5098060;28;19908;-81
2023/05/20 02:53:23;;;;;;;;;;;18.30;50.30;;;;;;5079742;28;19998;-81
2023/05/20 02:55:49;;;;;;;;;;;18.30;50.30;;;;;;5081138;28;19962;-82
2023/05/20 02:58:16;;;;;;;;;;;18.30;50.30;;;;;;5098308;28;19908;-82
2023/05/20 03:00:42;;;;;;;;;;;18.30;50.30;;;;;;5097913;28;19908;-81
2023/05/20 03:03:08;;;;;;;;;;;18.30;50.30;;;;;;5081264;28;19938;-82
2023/05/20 03:05:37;;;;;;;;;;;18.30;50.30;;;;;;5081373;28;20061;-82
2023/05/20 03:08:08;;;;;;;;;;;18.30;50.40;;;;;;5080279;28;19939;-82
2023/05/20 03:10:34;;;;;;;;;;;18.30;50.40;;;;;;5080681;28;19912;-82
2023/05/20 03:12:59;;;;;;;;;;;18.30;50.40;;;;;;5079455;28;19912;-81
2023/05/20 03:15:25;;;;;;;;;;;18.20;50.40;;;;;;5078772;28;19930;-81
2023/05/20 03:17:50;;;;;;;;;;;18.20;50.40;;;;;;5078795;28;19908;-81
2023/05/20 03:20:16;;;;;;;;;;;18.20;50.40;;;;;;5078952;28;19916;-81
2023/05/20 03:22:42;;;;;;;;;;;18.20;50.40;;;;;;5113957;28;19916;-82
2023/05/20 03:25:08;;;;;;;;;;;18.20;50.40;;;;;;5080439;28;19930;-82
2023/05/20 03:27:35;;;;;;;;;;;18.20;50.40;;;;;;5114247;28;20006;-82
2023/05/20 03:30:02;;;;;;;;;;;18.20;50.40;;;;;;5080250;28;19969;-81
2023/05/20 03:32:27;;;;;;;;;;;18.20;50.40;;;;;;5079721;28;19963;-82
2023/05/20 03:34:53;;;;;;;;;;;18.20;50.40;;;;;;5079362;28;19948;-81
2023/05/20 03:37:19;;;;;;;;;;;18.10;50.30;;;;;;5078553;28;19955;-81
2023/05/20 03:39:44;;;;;;;;;;;18.10;50.30;;;;;;5079161;28;19908;-81
2023/05/20 03:42:10;;;;;;;;;;;18.10;50.40;;;;;;5096999;28;19915;-81
2023/05/20 03:44:35;;;;;;;;;;;18.10;50.30;;;;;;5096603;28;19908;-81
2023/05/20 03:47:01;;;;;;;;;;;18.10;50.30;;;;;;5079723;28;19913;-81
2023/05/20 03:49:26;;;;;;;;;;;18.10;50.30;;;;;;5078062;28;19939;-81
2023/05/20 03:51:52;;;;;;;;;;;18.10;50.30;;;;;;5077541;28;20167;-81
2023/05/20 03:54:18;;;;;;;;;;;18.10;50.30;;;;;;5078446;28;19908;-81
2023/05/20 03:56:45;;;;;;;;;;;18.10;50.30;;;;;;5094959;28;19909;-81
2023/05/20 03:59:11;;;;;;;;;;;18.10;50.30;;;;;;5077768;28;19916;-81
2023/05/20 04:01:37;;;;;;;;;;;18.10;50.30;;;;;;5077808;28;20220;-81
2023/05/20 04:04:03;;;;;;;;;;;18.10;50.30;;;;;;5111521;28;19919;-81
2023/05/20 04:06:28;;;;;;;;;;;18.10;50.30;;;;;;5095835;28;19908;-81
2023/05/20 04:08:54;;;;;;;;;;;18.10;50.30;;;;;;5112135;28;20273;-81
2023/05/20 04:11:20;;;;;;;;;;;18.10;50.30;;;;;;5077608;28;19908;-81
2023/05/20 04:13:45;;;;;;;;;;;18.10;50.30;;;;;;5112924;28;19940;-82
2023/05/20 04:16:11;;;;;;;;;;;18.10;50.30;;;;;;5096873;28;19952;-82
2023/05/20 04:18:37;;;;;;;;;;;18.10;50.30;;;;;;5095957;28;19908;-82
2023/05/20 04:21:03;;;;;;;;;;;18.10;50.30;;;;;;5077631;28;20015;-81
2023/05/20 04:23:29;;;;;;;;;;;18.10;50.30;;;;;;5077140;28;19920;-81
2023/05/20 04:25:55;;;;;;;;;;;18.10;50.30;;;;;;5076906;28;20107;-82
2023/05/20 04:28:22;;;;;;;;;;;18.10;50.30;;;;;;5076800;28;19927;-82
2023/05/20 04:30:48;;;;;;;;;;;18.10;50.30;;;;;;5076916;28;19916;-82
2023/05/20 04:33:15;;;;;;;;;;;18.20;50.30;;;;;;5076903;28;20243;-81
2023/05/20 04:35:40;;;;;;;;;;;18.20;50.20;;;;;;5076581;28;19940;-81
2023/05/20 04:38:06;;;;;;;;;;;18.20;50.20;;;;;;5077604;28;20210;-81
2023/05/20 04:40:32;;;;;;;;;;;18.20;50.20;;;;;;5077961;28;20324;-81
2023/05/20 04:43:02;;;;;;;;;;;18.30;50.20;;;;;;5111514;28;19916;-81
2023/05/20 04:45:28;;;;;;;;;;;18.30;50.20;;;;;;5111320;28;20268;-81
2023/05/20 04:47:53;;;;;;;;;;;18.30;50.10;;;;;;5094297;28;20155;-81
2023/05/20 04:50:20;;;;;;;;;;;18.30;50.10;;;;;;5077025;28;19908;-81
2023/05/20 04:52:46;;;;;;;;;;;18.30;50.10;;;;;;5094853;28;19934;-82
2023/05/20 04:55:12;;;;;;;;;;;18.40;50.20;;;;;;5077491;28;19916;-82
2023/05/20 04:57:41;;;;;;;;;;;18.40;50.20;;;;;;5093836;28;19915;-81
2023/05/20 05:00:08;;;;;;;;;;;18.40;50.10;;;;;;5076924;28;19973;-81
2023/05/20 05:02:35;;;;;;;;;;;18.50;50.10;;;;;;5096082;28;19946;-81
2023/05/20 05:05:00;;;;;;;;;;;18.50;50.10;;;;;;5077418;28;19959;-81
2023/05/20 05:07:25;;;;;;;;;;;18.50;50.00;;;;;;5077933;28;20177;-82
2023/05/20 05:09:51;;;;;;;;;;;18.60;50.00;;;;;;5076835;28;19916;-81
2023/05/20 05:12:17;;;;;;;;;;;18.60;50.00;;;;;;5077886;28;20370;-81
2023/05/20 05:14:45;;;;;;;;;;;18.60;49.90;;;;;;5078433;28;19982;-81
2023/05/20 05:17:11;;;;;;;;;;;18.70;50.00;;;;;;5112031;28;19919;-81
2023/05/20 05:19:36;;;;;;;;;;;18.70;49.90;;;;;;5077192;28;19912;-81
2023/05/20 05:22:02;;;;;;;;;;;18.80;49.80;;;;;;5077149;28;19912;-81
2023/05/20 05:24:28;;;;;;;;;;;18.80;49.80;;;;;;5077147;28;20300;-82
2023/05/20 05:26:54;;;;;;;;;;;18.90;49.70;;;;;;5110586;28;19912;-81
2023/05/20 05:29:20;;;;;;;;;;;18.90;49.70;;;;;;5094921;28;19920;-81
2023/05/20 05:31:45;;;;;;;;;;;19.00;49.80;;;;;;5076764;28;19904;-82
2023/05/20 05:34:11;;;;;;;;;;;19.10;49.60;;;;;;5076268;28;19908;-82
2023/05/20 05:36:38;;;;;;;;;;;19.10;49.50;;;;;;5094702;28;20319;-81
2023/05/20 05:39:03;;;;;;;;;;;19.20;49.40;;;;;;5076846;28;20364;-81
2023/05/20 05:41:29;;;;;;;;;;;19.30;49.30;;;;;;5094388;28;20010;-82
2023/05/20 05:43:55;;;;;;;;;;;19.30;49.30;;;;;;5077596;28;19943;-82
2023/05/20 05:46:20;;;;;;;;;;;19.40;49.20;;;;;;5084863;28;19909;-81
2023/05/20 05:48:48;;;;;;;;;;;19.50;49.10;;;;;;5077361;28;20028;-82
2023/05/20 05:51:13;;;;;;;;;;;19.70;48.90;;;;;;5076301;28;20249;-81
2023/05/20 05:53:40;;;;;;;;;;;19.80;48.90;;;;;;5075246;28;19908;-82
2023/05/20 05:56:06;;;;;;;;;;;19.80;48.70;;;;;;5075981;28;19908;-82
2023/05/20 05:58:32;;;;;;;;;;;19.90;48.90;;;;;;5076735;28;20185;-82
2023/05/20 06:00:57;;;;;;;;;;;20.10;48.70;;;;;;5076095;28;19972;-81
2023/05/20 06:03:28;;;;;;;;;;;20.10;48.50;;;;;;5095720;28;19997;-82
2023/05/20 06:05:54;;;;;;;;;;;20.20;48.90;;;;;;5077625;28;19908;-82
2023/05/20 06:08:20;;;;;;;;;;;20.30;48.50;;;;;;5077917;28;19912;-82
2023/05/20 06:10:49;;;;;;;;;;;20.40;48.50;;;;;;5078263;28;20004;-82
2023/05/20 06:13:16;;;;;;;;;;;20.40;48.30;;;;;;5096540;28;19963;-82
2023/05/20 06:15:44;;;;;;;;;;;20.50;48.30;;;;;;5095263;28;19932;-81
2023/05/20 06:18:16;;;;;;;;;;;20.50;48.30;;;;;;5097057;28;19915;-82
2023/05/20 06:20:41;;;;;;;;;;;20.50;48.30;;;;;;5079132;28;19920;-82
2023/05/20 06:23:07;;;;;;;;;;;20.50;48.30;;;;;;5079549;28;19908;-82
2023/05/20 06:25:32;;;;;;;;;;;20.50;48.50;;;;;;5096745;28;19908;-82
2023/05/20 06:27:58;;;;;;;;;;;20.50;48.90;;;;;;5079111;28;20349;-82
2023/05/20 06:30:43;;;;;;;;;;;20.60;48.60;;;;;;5097968;28;20249;-82
2023/05/20 06:33:10;;;;;;;;;;;20.60;48.60;;;;;;5079945;28;20156;-80
2023/05/20 06:35:36;;;;;;;;;;;20.60;48.70;;;;;;5081971;28;20048;-80
2023/05/20 06:38:01;;;;;;;;;;;20.60;48.70;;;;;;5099270;28;19916;-80
2023/05/20 06:40:27;;;;;;;;;;;20.60;48.80;;;;;;5080346;28;19908;-81
2023/05/20 06:42:56;;;;;;;;;;;20.60;48.80;;;;;;5080702;28;19970;-81
2023/05/20 06:45:28;;;;;;;;;;;20.60;48.80;;;;;;5080573;28;19908;-81
2023/05/20 06:47:53;;;;;;;;;;;20.50;48.80;;;;;;5097597;28;20182;-80
2023/05/20 06:50:21;;;;;;;;;;;20.40;48.90;;;;;;5080539;28;20262;-82
2023/05/20 06:52:46;;;;;;;;;;;20.40;48.90;;;;;;5095780;28;19986;-81
2023/05/20 06:55:20;;;;;;;;;;;20.30;49.00;;;;;;5097726;28;20311;-81
2023/05/20 06:57:45;;;;;;;;;;;20.30;49.10;;;;;;5096887;28;19919;-81
2023/05/20 07:00:12;;;;;;;;;;;20.20;49.10;;;;;;5078230;28;19908;-81
2023/05/20 07:02:42;;;;;;;;;;;20.20;49.20;;;;;;5080876;28;19931;-81
2023/05/20 07:05:08;;;;;;;;;;;20.10;49.20;;;;;;5096528;28;19923;-81
2023/05/20 07:07:38;;;;;;;;;;;20.10;49.40;;;;;;5097716;28;19948;-81
2023/05/20 07:10:07;;;;;;;;;;;20.10;49.50;;;;;;5118274;27;19912;-81
2023/05/20 07:12:53;;;;;;;;;;;20.00;49.50;;;;;;5098055;28;19912;-81
2023/05/20 07:15:26;;;;;;;;;;;20.00;49.60;;;;;;5118366;28;20274;-80
2023/05/20 07:17:52;;;;;;;;;;;20.00;49.60;;;;;;5097982;28;19912;-81
2023/05/20 07:20:17;;;;;;;;;;;20.00;49.70;;;;;;5097653;28;19911;-82
2023/05/20 07:22:43;;;;;;;;;;;20.00;49.70;;;;;;5132560;27;19915;-82
2023/05/20 07:25:11;;;;;;;;;;;19.90;49.70;;;;;;5097208;28;19919;-82
2023/05/20 07:27:37;;;;;;;;;;;20.00;49.70;;;;;;5098509;28;19916;-82
2023/05/20 07:30:02;;;;;;;;;;;20.00;49.80;;;;;;5114736;28;20105;-81
2023/05/20 07:32:28;;;;;;;;;;;20.00;49.70;;;;;;5115191;28;19919;-81
2023/05/20 07:34:59;;;;;;;;;;;20.00;49.70;;;;;;5097322;28;19911;-82
2023/05/20 07:37:24;;;;;;;;;;;20.10;49.70;;;;;;5112354;28;20327;-82
2023/05/20 07:39:59;;;;;;;;;;;20.20;49.70;;;;;;5095370;28;19951;-82
2023/05/20 07:42:34;;;;;;;;;;;20.20;49.70;;;;;;5096446;28;19977;-82
2023/05/20 07:44:59;;;;;;;;;;;20.20;49.70;;;;;;5098975;28;20034;-83
2023/05/20 07:47:34;;;;;;;;;;;20.30;49.20;;;;;;5094516;28;20033;-83
2023/05/20 07:49:59;;;;;;;;;;;20.40;49.60;;;;;;5081633;28;19912;-82
2023/05/20 07:52:33;;;;;;;;;;;20.50;49.40;;;;;;5089516;28;19907;-83
2023/05/20 07:55:03;;;;;;;;;;;20.50;48.90;;;;;;5101514;28;19947;-83
2023/05/20 07:57:29;;;;;;;;;;;20.50;49.30;;;;;;5114168;28;19908;-83
2023/05/20 07:59:55;;;;;;;;;;;20.50;49.40;;;;;;5114853;28;20002;-81
2023/05/20 08:02:22;;;;;;;;;;;20.50;49.50;;;;;;5113757;28;19971;-81
2023/05/20 08:04:48;;;;;;;;;;;20.60;49.50;;;;;;5113399;28;19946;-81
2023/05/20 08:07:13;;;;;;;;;;;20.70;49.30;;;;;;5095459;28;20313;-82
2023/05/20 08:09:39;;;;;;;;;;;20.70;49.30;;;;;;5111875;28;19914;-82
2023/05/20 08:12:05;;;;;;;;;;;20.60;49.40;;;;;;5112401;28;19908;-82
2023/05/20 08:14:30;;;;;;;;;;;20.50;49.50;;;;;;5094046;28;19907;-82
2023/05/20 08:16:56;;;;;;;;;;;20.40;49.60;;;;;;5129451;27;19912;-82
2023/05/20 08:19:21;;;;;;;;;;;20.40;49.70;;;;;;5095520;28;19923;-81
2023/05/20 08:21:47;;;;;;;;;;;20.40;49.80;;;;;;5114150;28;19915;-80
2023/05/20 08:24:13;;;;;;;;;;;20.50;49.70;;;;;;5095222;28;19912;-81
2023/05/20 08:26:39;;;;;;;;;;;20.60;49.70;;;;;;5095254;28;19912;-81
2023/05/20 08:29:04;;;;;;;;;;;20.60;49.80;;;;;;5129425;27;19907;-82
2023/05/20 08:31:31;;;;;;;;;;;20.50;49.80;;;;;;5113534;28;19950;-81
2023/05/20 08:33:57;;;;;;;;;;;20.50;49.80;;;;;;5096247;28;19908;-81
2023/05/20 08:36:23;;;;;;;;;;;20.60;49.90;;;;;;5113634;28;20296;-82
2023/05/20 08:38:49;;;;;;;;;;;20.60;49.80;;;;;;5096266;28;19908;-81
2023/05/20 08:41:44;;;;;;;;;;;20.70;49.90;;;;;;5114446;28;19908;-82
2023/05/20 08:44:11;;;;;;;;;;;20.70;49.80;;;;;;5112318;28;19920;-81
2023/05/20 08:46:37;;;;;;;;;;;20.80;49.80;;;;;;5095911;28;20365;-82
2023/05/20 08:49:03;;;;;;;;;;;20.70;49.80;;;;;;5096174;28;19915;-81
2023/05/20 08:51:31;;;;;;;;;;;20.70;49.90;;;;;;5095861;28;20002;-82
2023/05/20 08:53:58;;;;;;;;;;;20.70;49.90;;;;;;5095298;28;19911;-82
2023/05/20 08:56:26;;;;;;;;;;;20.70;49.90;;;;;;5115736;28;19915;-81
2023/05/20 08:58:52;;;;;;;;;;;20.60;50.00;;;;;;5102575;28;19918;-82
2023/05/20 09:01:17;;;;;;;;;;;20.60;50.00;;;;;;5072160;28;19924;-81
2023/05/20 09:03:43;;;;;;;;;;;20.60;50.10;;;;;;5087818;28;19961;-81
2023/05/20 09:06:09;;;;;;;;;;;20.60;50.20;;;;;;5088133;28;19974;-81
2023/05/20 09:08:34;;;;;;;;;;;20.60;50.20;;;;;;5089610;28;20172;-81
2023/05/20 09:11:00;;;;;;;;;;;20.60;50.30;;;;;;5089527;28;19912;-82
2023/05/20 09:13:27;;;;;;;;;;;20.60;50.40;;;;;;5089104;28;20041;-81
2023/05/20 09:15:52;;;;;;;;;;;20.60;50.40;;;;;;5091551;28;19908;-81
2023/05/20 09:18:18;;;;;;;;;;;20.60;50.40;;;;;;5090343;28;19919;-81
2023/05/20 09:20:45;;;;;;;;;;;20.60;50.50;;;;;;5093494;28;19908;-81
2023/05/20 09:23:11;;;;;;;;;;;20.60;50.60;;;;;;5092378;28;19908;-82
2023/05/20 09:25:36;;;;;;;;;;;20.60;50.50;;;;;;5093219;28;20141;-82
2023/05/20 09:28:06;;;;;;;;;;;20.60;50.50;;;;;;5091967;28;19912;-81
2023/05/20 09:30:32;;;;;;;;;;;20.60;50.60;;;;;;5090143;28;19962;-81
2023/05/20 09:32:58;;;;;;;;;;;20.60;50.70;;;;;;5106155;28;19909;-82
2023/05/20 09:35:24;;;;;;;;;;;20.60;50.70;;;;;;5091061;28;19933;-82
2023/05/20 09:37:55;;;;;;;;;;;20.50;50.70;;;;;;5094038;28;20326;-82
2023/05/20 09:40:23;;;;;;;;;;;20.50;50.80;;;;;;5094005;28;19956;-82
2023/05/20 09:42:56;;;;;;;;;;;20.50;51.00;;;;;;5094938;28;20439;-82
2023/05/20 09:45:47;;;;;;;;;;;20.40;51.00;;;;;;5096056;28;20277;-82
2023/05/20 09:48:13;;;;;;;;;;;20.40;51.00;;;;;;5110330;28;19931;-82
2023/05/20 09:50:39;;;;;;;;;;;20.40;51.10;;;;;;5111102;28;20154;-82
2023/05/20 09:53:06;;;;;;;;;;;20.40;51.20;;;;;;5093808;28;19908;-82
2023/05/20 09:55:32;;;;;;;;;;;20.40;51.30;;;;;;5110715;28;20332;-82
2023/05/20 09:58:00;;;;;;;;;;;20.40;51.30;;;;;;5110372;28;20014;-82
2023/05/20 10:00:26;;;;;;;;;;;20.40;51.30;;;;;;5111884;28;19922;-83
2023/05/20 10:02:52;;;;;;;;;;;20.40;51.30;;;;;;5091849;28;19915;-82
2023/05/20 10:05:23;;;;;;;;;;;20.30;51.40;;;;;;5094102;28;19922;-83
2023/05/20 10:07:48;;;;;;;;;;;20.30;51.50;;;;;;5093556;28;19922;-83
2023/05/20 10:10:26;;;;;;;;;;;20.30;51.60;;;;;;5095546;28;19908;-82
2023/05/20 10:13:01;;;;;;;;;;;20.30;52.00;;;;;;5094319;28;19918;-82
2023/05/20 10:15:43;;;;;;;;;;;20.40;51.60;;;;;;5095311;28;20002;-82
2023/05/20 10:18:18;;;;;;;;;;;20.40;51.70;;;;;;5112296;28;19918;-82
2023/05/20 10:20:44;;;;;;;;;;;20.40;51.60;;;;;;5094812;28;19908;-82
2023/05/20 10:23:19;;;;;;;;;;;20.40;51.50;;;;;;5093726;28;19996;-82
2023/05/20 10:25:52;;;;;;;;;;;20.50;51.60;;;;;;5090563;28;20282;-82
2023/05/20 10:28:27;;;;;;;;;;;20.50;51.70;;;;;;5091683;28;20018;-83
2023/05/20 10:30:52;;;;;;;;;;;20.50;51.70;;;;;;5092471;28;20197;-82
2023/05/20 10:33:18;;;;;;;;;;;20.50;51.70;;;;;;5110133;28;19912;-82
2023/05/20 10:35:51;;;;;;;;;;;20.60;51.80;;;;;;5091510;28;20011;-83
2023/05/20 10:38:16;;;;;;;;;;;20.60;51.70;;;;;;5091839;28;19926;-83
2023/05/20 10:40:42;;;;;;;;;;;20.60;51.80;;;;;;5109397;28;19912;-82
2023/05/20 10:43:11;;;;;;;;;;;20.60;51.80;;;;;;5091511;28;19908;-83
2023/05/20 10:46:07;;;;;;;;;;;20.70;51.70;;;;;;5090107;28;19967;-82
2023/05/20 10:48:32;;;;;;;;;;;20.80;52.20;;;;;;5085180;28;19911;-83
2023/05/20 10:50:59;;;;;;;;;;;20.80;52.10;;;;;;5107246;28;20102;-82
2023/05/20 10:53:26;;;;;;;;;;;20.90;52.00;;;;;;5108499;28;19959;-82
2023/05/20 10:55:53;;;;;;;;;;;21.00;51.90;;;;;;5090571;28;20273;-82
2023/05/20 10:58:20;;;;;;;;;;;21.00;52.00;;;;;;5091762;28;19969;-82
2023/05/20 11:00:46;;;;;;;;;;;21.00;52.00;;;;;;5091470;28;19908;-82
2023/05/20 11:03:13;;;;;;;;;;;21.00;51.80;;;;;;5111508;28;19908;-82
2023/05/20 11:05:39;;;;;;;;;;;21.10;51.90;;;;;;5093499;28;20138;-82
2023/05/20 11:08:08;;;;;;;;;;;21.10;51.80;;;;;;5111522;28;19912;-82
2023/05/20 11:10:34;;;;;;;;;;;21.20;51.80;;;;;;5096189;28;19903;-82
2023/05/20 11:13:00;;;;;;;;;;;21.20;51.80;;;;;;5097020;28;19908;-81
2023/05/20 11:15:26;;;;;;;;;;;21.30;51.80;;;;;;5090943;28;19975;-81
2023/05/20 11:17:54;;;;;;;;;;;21.40;51.80;;;;;;5090731;28;19998;-82
2023/05/20 11:20:21;;;;;;;;;;;21.40;51.90;;;;;;5091438;28;20247;-82
2023/05/20 11:22:48;;;;;;;;;;;21.40;51.80;;;;;;5111242;28;20055;-82
2023/05/20 11:25:13;;;;;;;;;;;21.40;51.60;;;;;;5093810;28;19976;-82
2023/05/20 11:27:39;;;;;;;;;;;21.40;51.70;;;;;;5128218;27;19920;-82
2023/05/20 11:30:05;;;;;;;;;;;21.40;51.70;;;;;;5093105;28;19915;-81
2023/05/20 11:32:31;;;;;;;;;;;21.50;51.70;;;;;;5091243;28;19951;-82
2023/05/20 11:34:56;;;;;;;;;;;21.40;52.00;;;;;;5095796;28;19977;-82
2023/05/20 11:37:23;;;;;;;;;;;21.40;51.90;;;;;;5093608;28;19989;-82
2023/05/20 11:40:01;;;;;;;;;;;21.40;51.90;;;;;;5092698;28;19916;-82
2023/05/20 11:42:27;;;;;;;;;;;21.40;52.10;;;;;;5090056;28;19999;-82
2023/05/20 11:44:52;;;;;;;;;;;21.50;52.70;;;;;;5091751;28;20022;-82
2023/05/20 11:47:23;;;;;;;;;;;21.60;52.30;;;;;;5091699;28;20421;-81
2023/05/20 11:49:49;;;;;;;;;;;21.70;52.30;;;;;;5092461;28;19922;-82
2023/05/20 11:52:14;;;;;;;;;;;21.70;52.10;;;;;;5090285;28;20007;-81
2023/05/20 11:54:40;;;;;;;;;;;21.70;52.20;;;;;;5088423;28;20053;-82
2023/05/20 11:57:05;;;;;;;;;;;21.70;52.20;;;;;;5108195;28;19965;-82
2023/05/20 11:59:31;;;;;;;;;;;21.70;52.40;;;;;;5090503;28;19932;-82
2023/05/20 12:01:57;;;;;;;;;;;21.70;52.40;;;;;;5107818;28;20023;-82
2023/05/20 12:04:22;;;;;;;;;;;21.70;52.20;;;;;;5088953;28;19993;-82
2023/05/20 12:06:51;;;;;;;;;;;21.80;52.00;;;;;;5107205;28;19908;-82
2023/05/20 12:09:17;;;;;;;;;;;21.80;51.80;;;;;;5089937;28;19908;-83
2023/05/20 12:11:44;;;;;;;;;;;21.90;51.80;;;;;;5108227;28;20064;-83
2023/05/20 12:14:09;;;;;;;;;;;21.80;51.90;;;;;;5109203;28;20396;-82
2023/05/20 12:16:36;;;;;;;;;;;21.80;52.10;;;;;;5091220;28;19908;-82
2023/05/20 12:19:02;;;;;;;;;;;21.80;52.20;;;;;;5109903;28;19908;-83
2023/05/20 12:21:28;;;;;;;;;;;21.80;52.30;;;;;;5092137;28;19918;-82
2023/05/20 12:23:56;;;;;;;;;;;21.80;52.60;;;;;;5091290;28;20175;-83
2023/05/20 12:26:31;;;;;;;;;;;21.80;52.30;;;;;;5110143;28;19904;-82
2023/05/20 12:28:57;;;;;;;;;;;21.70;52.60;;;;;;5091080;28;19911;-82
2023/05/20 12:31:23;;;;;;;;;;;21.70;52.80;;;;;;5107880;28;19912;-82
2023/05/20 12:33:49;;;;;;;;;;;21.70;52.90;;;;;;5091632;28;19955;-82
2023/05/20 12:36:15;;;;;;;;;;;21.60;52.80;;;;;;5091322;28;20013;-82
2023/05/20 12:38:40;;;;;;;;;;;21.60;52.90;;;;;;5109993;28;20349;-82
2023/05/20 12:41:06;;;;;;;;;;;21.60;52.70;;;;;;5111143;28;20031;-82
2023/05/20 12:43:32;;;;;;;;;;;21.60;52.80;;;;;;5090492;28;19919;-81
2023/05/20 12:45:57;;;;;;;;;;;21.60;52.80;;;;;;5090760;28;20071;-82
2023/05/20 12:48:23;;;;;;;;;;;21.70;52.80;;;;;;5108118;28;19912;-83
2023/05/20 12:50:49;;;;;;;;;;;21.60;53.10;;;;;;5109003;28;19947;-82
2023/05/20 12:53:14;;;;;;;;;;;21.60;53.10;;;;;;5110277;28;19912;-82
2023/05/20 12:55:40;;;;;;;;;;;21.60;53.00;;;;;;5109792;28;19918;-82
2023/05/20 12:58:07;;;;;;;;;;;21.60;53.20;;;;;;5108119;28;20209;-82
2023/05/20 13:00:33;;;;;;;;;;;21.60;53.20;;;;;;5088554;28;19908;-82
2023/05/20 13:02:59;;;;;;;;;;;21.60;53.20;;;;;;5107551;28;20022;-82
2023/05/20 13:05:25;;;;;;;;;;;21.60;53.40;;;;;;5119845;27;20065;-82
2023/05/20 13:07:50;;;;;;;;;;;21.60;53.40;;;;;;5106207;28;19911;-82
2023/05/20 13:10:16;;;;;;;;;;;21.60;53.40;;;;;;5109749;28;19909;-81
2023/05/20 13:12:44;;;;;;;;;;;21.60;53.40;;;;;;5126209;27;20060;-82
2023/05/20 13:15:13;;;;;;;;;;;21.60;53.50;;;;;;5110534;28;20030;-82
2023/05/20 13:17:39;;;;;;;;;;;21.60;53.40;;;;;;5091325;28;20280;-82
2023/05/20 13:20:06;;;;;;;;;;;21.70;53.50;;;;;;5090418;28;20139;-81
2023/05/20 13:22:31;;;;;;;;;;;21.60;53.50;;;;;;5107662;28;20077;-82
2023/05/20 13:24:57;;;;;;;;;;;21.70;53.40;;;;;;5091490;28;20010;-82
2023/05/20 13:27:23;;;;;;;;;;;21.70;53.40;;;;;;5091530;28;19911;-80
2023/05/20 13:29:48;;;;;;;;;;;21.70;53.40;;;;;;5091254;28;20003;-82
2023/05/20 13:32:14;;;;;;;;;;;21.70;53.40;;;;;;5095707;28;19916;-81
2023/05/20 13:34:40;;;;;;;;;;;21.70;53.50;;;;;;5092360;28;19955;-81
2023/05/20 13:37:05;;;;;;;;;;;21.80;53.40;;;;;;5094166;28;19973;-82
2023/05/20 13:39:31;;;;;;;;;;;21.80;53.30;;;;;;5093351;28;19908;-82
2023/05/20 13:41:57;;;;;;;;;;;21.80;53.40;;;;;;5091779;28;19908;-82
2023/05/20 13:44:23;;;;;;;;;;;21.80;53.40;;;;;;5091622;28;19908;-81
2023/05/20 13:46:48;;;;;;;;;;;21.90;53.40;;;;;;5092808;28;19912;-82
2023/05/20 13:49:14;;;;;;;;;;;21.80;53.30;;;;;;5098354;28;20257;-82
2023/05/20 13:51:39;;;;;;;;;;;21.80;53.20;;;;;;5098375;28;19908;-82
2023/05/20 13:54:05;;;;;;;;;;;21.80;53.20;;;;;;5097327;28;20178;-82
2023/05/20 13:56:31;;;;;;;;;;;21.80;53.30;;;;;;5099352;28;20109;-82
2023/05/20 13:58:57;;;;;;;;;;;21.80;53.40;;;;;;5098419;28;20172;-82
2023/05/20 14:01:22;;;;;;;;;;;21.80;53.40;;;;;;5114690;28;19918;-81
2023/05/20 14:03:48;;;;;;;;;;;21.80;53.40;;;;;;5098810;28;20239;-82
2023/05/20 14:06:17;;;;;;;;;;;21.80;53.40;;;;;;5113529;28;19912;-82
2023/05/20 14:08:46;;;;;;;;;;;21.80;53.20;;;;;;5092337;28;19918;-82
2023/05/20 14:11:11;;;;;;;;;;;21.90;53.40;;;;;;5092238;28;19976;-82
2023/05/20 14:13:37;;;;;;;;;;;21.80;53.40;;;;;;5091554;28;19908;-82